sensor_id;sensor_type;location;lat;lon;timestamp;temperature;humidity
31527;DHT22;18136;42.236;-73.040;2023-06-10T00:00:03;12.40;99.90
31527;DHT22;18136;42.236;-73.040;2023-06-10T00:02:31;12.40;99.90
31527;DHT22;18136;42.236;-73.040;2023-06-10T00:04:57;12.30;99.90
31527;DHT22;18136;42.236;-73.040;2023-06-10T00:07:24;12.30;99.90
31527;DHT22;18136;42.236;-73.040;2023-06-10T00:09:50;12.30;99.90
31527;DHT22;18136;42.236;-73.040;2023-06-10T00:12:17;12.30;99.90
31527;DHT22;18136;42.236;-73.040;2023-06-10T00:14:47;12.20;99.90
31527;DHT22;18136;42.236;-73.040;2023-06-10T00:17:15;12.20;99.90
31527;DHT22;18136;42.236;-73.040;2023-06-10T00:19:43;12.20;99.90
31527;DHT22;18136;42.236;-73.040;2023-06-10T00:22:09;12.20;99.90
31527;DHT22;18136;42.236;-73.040;2023-06-10T00:24:36;12.10;99.90
31527;DHT22;18136;42.236;-73.040;2023-06-10T00:27:04;12.10;99.90
31527;DHT22;18136;42.236;-73.040;2023-06-10T00:29:32;12.10;99.90
31527;DHT22;18136;42.236;-73.040;2023-06-10T00:31:59;12.00;99.90
31527;DHT22;18136;42.236;-73.040;2023-06-10T00:34:26;12.00;99.90
31527;DHT22;18136;42.236;-73.040;2023-06-10T00:36:53;12.00;99.90
31527;DHT22;18136;42.236;-73.040;2023-06-10T00:39:19;12.00;99.90
31527;DHT22;18136;42.236;-73.040;2023-06-10T00:41:47;11.90;99.90
31527;DHT22;18136;42.236;-73.040;2023-06-10T00:44:13;11.90;99.90
31527;DHT22;18136;42.236;-73.040;2023-06-10T00:46:39;11.90;99.90
31527;DHT22;18136;42.236;-73.040;2023-06-10T00:49:05;11.80;99.90
31527;DHT22;18136;42.236;-73.040;2023-06-10T00:51:32;11.70;99.90
31527;DHT22;18136;42.236;-73.040;2023-06-10T00:54:00;11.70;99.90
31527;DHT22;18136;42.236;-73.040;2023-06-10T00:56:26;11.70;99.90
31527;DHT22;18136;42.236;-73.040;2023-06-10T00:58:54;11.60;99.90
31527;DHT22;18136;42.236;-73.040;2023-06-10T01:01:21;11.60;99.90
31527;DHT22;18136;42.236;-73.040;2023-06-10T01:03:48;11.60;99.90
31527;DHT22;18136;42.236;-73.040;2023-06-10T01:09:45;11.50;99.90
31527;DHT22;18136;42.236;-73.040;2023-06-10T01:12:41;11.50;99.90
31527;DHT22;18136;42.236;-73.040;2023-06-10T01:15:15;11.50;99.90
31527;DHT22;18136;42.236;-73.040;2023-06-10T01:20:31;11.40;99.90
31527;DHT22;18136;42.236;-73.040;2023-06-10T01:22:59;11.40;99.90
31527;DHT22;18136;42.236;-73.040;2023-06-10T01:25:27;11.30;99.90
31527;DHT22;18136;42.236;-73.040;2023-06-10T01:28:07;11.20;99.90
31527;DHT22;18136;42.236;-73.040;2023-06-10T01:30:46;11.30;99.90
31527;DHT22;18136;42.236;-73.040;2023-06-10T01:33:17;11.20;99.90
31527;DHT22;18136;42.236;-73.040;2023-06-10T01:35:47;11.20;99.90
31527;DHT22;18136;42.236;-73.040;2023-06-10T01:38:14;11.10;99.90
31527;DHT22;18136;42.236;-73.040;2023-06-10T01:40:42;11.20;99.90
31527;DHT22;18136;42.236;-73.040;2023-06-10T01:45:39;11.10;99.90
31527;DHT22;18136;42.236;-73.040;2023-06-10T01:48:05;11.10;99.90
31527;DHT22;18136;42.236;-73.040;2023-06-10T01:50:32;11.10;99.90
31527;DHT22;18136;42.236;-73.040;2023-06-10T01:53:00;11.10;99.90
31527;DHT22;18136;42.236;-73.040;2023-06-10T01:55:26;11.10;99.90
31527;DHT22;18136;42.236;-73.040;2023-06-10T01:57:54;11.10;99.90
31527;DHT22;18136;42.236;-73.040;2023-06-10T02:00:20;11.10;99.90
31527;DHT22;18136;42.236;-73.040;2023-06-10T02:02:46;11.00;99.90
31527;DHT22;18136;42.236;-73.040;2023-06-10T02:05:12;11.00;99.90
31527;DHT22;18136;42.236;-73.040;2023-06-10T02:07:38;11.00;99.90
31527;DHT22;18136;42.236;-73.040;2023-06-10T02:10:06;11.00;99.90
31527;DHT22;18136;42.236;-73.040;2023-06-10T02:12:32;11.00;99.90
31527;DHT22;18136;42.236;-73.040;2023-06-10T02:14:58;11.00;99.90
31527;DHT22;18136;42.236;-73.040;2023-06-10T02:17:25;11.00;99.90
31527;DHT22;18136;42.236;-73.040;2023-06-10T02:19:52;10.90;99.90
31527;DHT22;18136;42.236;-73.040;2023-06-10T02:22:23;11.00;99.90
31527;DHT22;18136;42.236;-73.040;2023-06-10T02:24:49;10.90;99.90
31527;DHT22;18136;42.236;-73.040;2023-06-10T02:27:16;10.90;99.90
31527;DHT22;18136;42.236;-73.040;2023-06-10T02:29:43;10.90;99.90
31527;DHT22;18136;42.236;-73.040;2023-06-10T02:32:09;10.90;99.90
31527;DHT22;18136;42.236;-73.040;2023-06-10T02:34:36;10.90;99.90
31527;DHT22;18136;42.236;-73.040;2023-06-10T02:37:04;10.90;99.90
31527;DHT22;18136;42.236;-73.040;2023-06-10T02:39:31;10.90;99.90
31527;DHT22;18136;42.236;-73.040;2023-06-10T02:41:57;10.90;99.90
31527;DHT22;18136;42.236;-73.040;2023-06-10T02:44:23;10.90;99.90
31527;DHT22;18136;42.236;-73.040;2023-06-10T02:46:49;10.80;99.90
31527;DHT22;18136;42.236;-73.040;2023-06-10T02:49:15;10.80;99.90
31527;DHT22;18136;42.236;-73.040;2023-06-10T02:51:41;10.90;99.90
31527;DHT22;18136;42.236;-73.040;2023-06-10T02:54:07;10.80;99.90
31527;DHT22;18136;42.236;-73.040;2023-06-10T02:56:33;10.80;99.90
31527;DHT22;18136;42.236;-73.040;2023-06-10T02:58:59;10.80;99.90
31527;DHT22;18136;42.236;-73.040;2023-06-10T03:01:26;10.80;99.90
31527;DHT22;18136;42.236;-73.040;2023-06-10T03:03:52;10.80;99.90
31527;DHT22;18136;42.236;-73.040;2023-06-10T03:06:18;10.80;99.90
31527;DHT22;18136;42.236;-73.040;2023-06-10T03:08:44;10.70;99.90
31527;DHT22;18136;42.236;-73.040;2023-06-10T03:11:13;10.70;99.90
31527;DHT22;18136;42.236;-73.040;2023-06-10T03:13:39;10.70;99.90
31527;DHT22;18136;42.236;-73.040;2023-06-10T03:16:06;10.70;99.90
31527;DHT22;18136;42.236;-73.040;2023-06-10T03:18:33;10.70;99.90
31527;DHT22;18136;42.236;-73.040;2023-06-10T03:20:59;10.70;99.90
31527;DHT22;18136;42.236;-73.040;2023-06-10T03:23:26;10.70;99.90
31527;DHT22;18136;42.236;-73.040;2023-06-10T03:25:52;10.70;99.90
31527;DHT22;18136;42.236;-73.040;2023-06-10T03:28:20;10.80;99.90
31527;DHT22;18136;42.236;-73.040;2023-06-10T03:30:47;10.70;99.90
31527;DHT22;18136;42.236;-73.040;2023-06-10T03:33:13;10.70;99.90
31527;DHT22;18136;42.236;-73.040;2023-06-10T03:35:40;10.70;99.90
31527;DHT22;18136;42.236;-73.040;2023-06-10T03:38:06;10.70;99.90
31527;DHT22;18136;42.236;-73.040;2023-06-10T03:40:32;10.60;99.90
31527;DHT22;18136;42.236;-73.040;2023-06-10T03:42:58;10.60;99.90
31527;DHT22;18136;42.236;-73.040;2023-06-10T03:45:24;10.60;99.90
31527;DHT22;18136;42.236;-73.040;2023-06-10T03:47:50;10.60;99.90
31527;DHT22;18136;42.236;-73.040;2023-06-10T03:50:16;10.60;99.90
31527;DHT22;18136;42.236;-73.040;2023-06-10T03:52:42;10.60;99.90
31527;DHT22;18136;42.236;-73.040;2023-06-10T03:55:09;10.60;99.90
31527;DHT22;18136;42.236;-73.040;2023-06-10T03:57:37;10.60;99.90
31527;DHT22;18136;42.236;-73.040;2023-06-10T04:00:03;10.60;99.90
31527;DHT22;18136;42.236;-73.040;2023-06-10T04:02:34;10.60;99.90
31527;DHT22;18136;42.236;-73.040;2023-06-10T04:05:00;10.60;99.90
31527;DHT22;18136;42.236;-73.040;2023-06-10T04:07:27;10.60;99.90
31527;DHT22;18136;42.236;-73.040;2023-06-10T04:09:53;10.60;99.90
31527;DHT22;18136;42.236;-73.040;2023-06-10T04:12:20;10.50;99.90
31527;DHT22;18136;42.236;-73.040;2023-06-10T04:14:46;10.40;99.90
31527;DHT22;18136;42.236;-73.040;2023-06-10T04:17:12;10.50;99.90
31527;DHT22;18136;42.236;-73.040;2023-06-10T04:19:38;10.50;99.90
31527;DHT22;18136;42.236;-73.040;2023-06-10T04:22:04;10.50;99.90
31527;DHT22;18136;42.236;-73.040;2023-06-10T04:24:31;10.50;99.90
31527;DHT22;18136;42.236;-73.040;2023-06-10T04:26:57;10.50;99.90
31527;DHT22;18136;42.236;-73.040;2023-06-10T04:29:23;10.40;99.90
31527;DHT22;18136;42.236;-73.040;2023-06-10T04:31:49;10.40;99.90
31527;DHT22;18136;42.236;-73.040;2023-06-10T04:34:16;10.40;99.90
31527;DHT22;18136;42.236;-73.040;2023-06-10T04:36:42;10.50;99.90
31527;DHT22;18136;42.236;-73.040;2023-06-10T04:39:08;10.40;99.90
31527;DHT22;18136;42.236;-73.040;2023-06-10T04:41:34;10.40;99.90
31527;DHT22;18136;42.236;-73.040;2023-06-10T04:44:00;10.40;99.90
31527;DHT22;18136;42.236;-73.040;2023-06-10T04:46:26;10.40;99.90
31527;DHT22;18136;42.236;-73.040;2023-06-10T04:48:52;10.40;99.90
31527;DHT22;18136;42.236;-73.040;2023-06-10T04:51:20;10.40;99.90
31527;DHT22;18136;42.236;-73.040;2023-06-10T04:53:46;10.40;99.90
31527;DHT22;18136;42.236;-73.040;2023-06-10T04:56:12;10.40;99.90
31527;DHT22;18136;42.236;-73.040;2023-06-10T04:58:38;10.30;99.90
31527;DHT22;18136;42.236;-73.040;2023-06-10T05:01:04;10.40;99.90
31527;DHT22;18136;42.236;-73.040;2023-06-10T05:03:30;10.40;99.90
31527;DHT22;18136;42.236;-73.040;2023-06-10T05:05:56;10.30;99.90
31527;DHT22;18136;42.236;-73.040;2023-06-10T05:08:22;10.30;99.90
31527;DHT22;18136;42.236;-73.040;2023-06-10T05:10:48;10.30;99.90
31527;DHT22;18136;42.236;-73.040;2023-06-10T05:13:16;10.30;99.90
31527;DHT22;18136;42.236;-73.040;2023-06-10T05:15:42;10.30;99.90
31527;DHT22;18136;42.236;-73.040;2023-06-10T05:18:10;10.30;99.90
31527;DHT22;18136;42.236;-73.040;2023-06-10T05:20:38;10.30;99.90
31527;DHT22;18136;42.236;-73.040;2023-06-10T05:23:05;10.30;99.90
31527;DHT22;18136;42.236;-73.040;2023-06-10T05:25:32;10.30;99.90
31527;DHT22;18136;42.236;-73.040;2023-06-10T05:27:58;10.30;99.90
31527;DHT22;18136;42.236;-73.040;2023-06-10T05:30:25;10.30;99.90
31527;DHT22;18136;42.236;-73.040;2023-06-10T05:32:52;10.30;99.90
31527;DHT22;18136;42.236;-73.040;2023-06-10T05:35:18;10.30;99.90
31527;DHT22;18136;42.236;-73.040;2023-06-10T05:37:44;10.30;99.90
31527;DHT22;18136;42.236;-73.040;2023-06-10T05:40:11;10.20;99.90
31527;DHT22;18136;42.236;-73.040;2023-06-10T05:42:37;10.30;99.90
31527;DHT22;18136;42.236;-73.040;2023-06-10T05:45:05;10.30;99.90
31527;DHT22;18136;42.236;-73.040;2023-06-10T05:47:31;10.20;99.90
31527;DHT22;18136;42.236;-73.040;2023-06-10T05:49:59;10.30;99.90
31527;DHT22;18136;42.236;-73.040;2023-06-10T05:52:25;10.30;99.90
31527;DHT22;18136;42.236;-73.040;2023-06-10T05:54:51;10.30;99.90
31527;DHT22;18136;42.236;-73.040;2023-06-10T05:57:17;10.30;99.90
31527;DHT22;18136;42.236;-73.040;2023-06-10T05:59:43;10.30;99.90
31527;DHT22;18136;42.236;-73.040;2023-06-10T06:02:10;10.30;99.90
31527;DHT22;18136;42.236;-73.040;2023-06-10T06:04:36;10.30;99.90
31527;DHT22;18136;42.236;-73.040;2023-06-10T06:07:02;10.30;99.90
31527;DHT22;18136;42.236;-73.040;2023-06-10T06:09:28;10.30;99.90
31527;DHT22;18136;42.236;-73.040;2023-06-10T06:11:54;10.20;99.90
31527;DHT22;18136;42.236;-73.040;2023-06-10T06:14:20;10.20;99.90
31527;DHT22;18136;42.236;-73.040;2023-06-10T06:16:46;10.30;99.90
31527;DHT22;18136;42.236;-73.040;2023-06-10T06:19:12;10.20;99.90
31527;DHT22;18136;42.236;-73.040;2023-06-10T06:21:38;10.20;99.90
31527;DHT22;18136;42.236;-73.040;2023-06-10T06:24:05;10.20;99.90
31527;DHT22;18136;42.236;-73.040;2023-06-10T06:26:31;10.20;99.90
31527;DHT22;18136;42.236;-73.040;2023-06-10T06:28:57;10.10;99.90
31527;DHT22;18136;42.236;-73.040;2023-06-10T06:31:23;10.10;99.90
31527;DHT22;18136;42.236;-73.040;2023-06-10T06:33:49;10.10;99.90
31527;DHT22;18136;42.236;-73.040;2023-06-10T06:36:15;10.00;99.90
31527;DHT22;18136;42.236;-73.040;2023-06-10T06:38:41;10.10;99.90
31527;DHT22;18136;42.236;-73.040;2023-06-10T06:41:07;10.00;99.90
31527;DHT22;18136;42.236;-73.040;2023-06-10T06:43:33;10.00;99.90
31527;DHT22;18136;42.236;-73.040;2023-06-10T06:45:59;10.00;99.90
31527;DHT22;18136;42.236;-73.040;2023-06-10T06:48:25;10.00;99.90
31527;DHT22;18136;42.236;-73.040;2023-06-10T06:50:51;10.00;99.90
31527;DHT22;18136;42.236;-73.040;2023-06-10T06:53:17;9.90;99.90
31527;DHT22;18136;42.236;-73.040;2023-06-10T06:55:43;9.90;99.90
31527;DHT22;18136;42.236;-73.040;2023-06-10T06:58:10;9.80;99.90
31527;DHT22;18136;42.236;-73.040;2023-06-10T07:00:36;9.80;99.90
31527;DHT22;18136;42.236;-73.040;2023-06-10T07:03:02;9.70;99.90
31527;DHT22;18136;42.236;-73.040;2023-06-10T07:05:28;9.70;99.90
31527;DHT22;18136;42.236;-73.040;2023-06-10T07:07:56;9.60;99.90
31527;DHT22;18136;42.236;-73.040;2023-06-10T07:10:25;9.60;99.90
31527;DHT22;18136;42.236;-73.040;2023-06-10T07:12:53;9.50;99.90
31527;DHT22;18136;42.236;-73.040;2023-06-10T07:15:19;9.60;99.90
31527;DHT22;18136;42.236;-73.040;2023-06-10T07:17:45;9.50;99.90
31527;DHT22;18136;42.236;-73.040;2023-06-10T07:20:11;9.50;99.90
31527;DHT22;18136;42.236;-73.040;2023-06-10T07:22:38;9.50;99.90
31527;DHT22;18136;42.236;-73.040;2023-06-10T07:25:07;9.40;99.90
31527;DHT22;18136;42.236;-73.040;2023-06-10T07:27:33;9.50;99.90
31527;DHT22;18136;42.236;-73.040;2023-06-10T07:29:59;9.40;99.90
31527;DHT22;18136;42.236;-73.040;2023-06-10T07:32:26;9.40;99.90
31527;DHT22;18136;42.236;-73.040;2023-06-10T07:34:52;9.50;99.90
31527;DHT22;18136;42.236;-73.040;2023-06-10T07:37:18;9.40;99.90
31527;DHT22;18136;42.236;-73.040;2023-06-10T07:39:45;9.40;99.90
31527;DHT22;18136;42.236;-73.040;2023-06-10T07:42:11;9.40;99.90
31527;DHT22;18136;42.236;-73.040;2023-06-10T07:44:37;9.40;99.90
31527;DHT22;18136;42.236;-73.040;2023-06-10T07:47:03;9.40;99.90
31527;DHT22;18136;42.236;-73.040;2023-06-10T07:49:30;9.50;99.90
31527;DHT22;18136;42.236;-73.040;2023-06-10T07:51:56;9.50;99.90
31527;DHT22;18136;42.236;-73.040;2023-06-10T07:54:22;9.50;99.90
31527;DHT22;18136;42.236;-73.040;2023-06-10T07:56:48;9.50;99.90
31527;DHT22;18136;42.236;-73.040;2023-06-10T07:59:14;9.50;99.90
31527;DHT22;18136;42.236;-73.040;2023-06-10T08:01:40;9.50;99.90
31527;DHT22;18136;42.236;-73.040;2023-06-10T08:04:08;9.50;99.90
31527;DHT22;18136;42.236;-73.040;2023-06-10T08:06:34;9.50;99.90
31527;DHT22;18136;42.236;-73.040;2023-06-10T08:09:02;9.60;99.90
31527;DHT22;18136;42.236;-73.040;2023-06-10T08:11:30;9.50;99.90
31527;DHT22;18136;42.236;-73.040;2023-06-10T08:13:56;9.50;99.90
31527;DHT22;18136;42.236;-73.040;2023-06-10T08:16:22;9.50;99.90
31527;DHT22;18136;42.236;-73.040;2023-06-10T08:18:48;9.60;99.90
31527;DHT22;18136;42.236;-73.040;2023-06-10T08:21:16;9.60;99.90
31527;DHT22;18136;42.236;-73.040;2023-06-10T08:23:42;9.50;99.90
31527;DHT22;18136;42.236;-73.040;2023-06-10T08:26:09;9.60;99.90
31527;DHT22;18136;42.236;-73.040;2023-06-10T08:28:35;9.50;99.90
31527;DHT22;18136;42.236;-73.040;2023-06-10T08:31:01;9.50;99.90
31527;DHT22;18136;42.236;-73.040;2023-06-10T08:33:27;9.50;99.90
31527;DHT22;18136;42.236;-73.040;2023-06-10T08:35:57;9.50;99.90
31527;DHT22;18136;42.236;-73.040;2023-06-10T08:38:23;9.50;99.90
31527;DHT22;18136;42.236;-73.040;2023-06-10T08:40:49;9.50;99.90
31527;DHT22;18136;42.236;-73.040;2023-06-10T08:43:24;9.50;99.90
31527;DHT22;18136;42.236;-73.040;2023-06-10T08:45:58;9.50;99.90
31527;DHT22;18136;42.236;-73.040;2023-06-10T08:48:30;9.50;99.90
31527;DHT22;18136;42.236;-73.040;2023-06-10T08:50:58;9.50;99.90
31527;DHT22;18136;42.236;-73.040;2023-06-10T08:53:26;9.60;99.90
31527;DHT22;18136;42.236;-73.040;2023-06-10T08:55:57;9.50;99.90
31527;DHT22;18136;42.236;-73.040;2023-06-10T08:58:25;9.60;99.90
31527;DHT22;18136;42.236;-73.040;2023-06-10T09:00:51;9.50;99.90
31527;DHT22;18136;42.236;-73.040;2023-06-10T09:03:18;9.50;99.90
31527;DHT22;18136;42.236;-73.040;2023-06-10T09:05:44;9.50;99.90
31527;DHT22;18136;42.236;-73.040;2023-06-10T09:08:11;9.50;99.90
31527;DHT22;18136;42.236;-73.040;2023-06-10T09:10:37;9.60;99.90
31527;DHT22;18136;42.236;-73.040;2023-06-10T09:13:03;9.50;99.90
31527;DHT22;18136;42.236;-73.040;2023-06-10T09:15:29;9.50;99.90
31527;DHT22;18136;42.236;-73.040;2023-06-10T09:17:55;9.50;99.90
31527;DHT22;18136;42.236;-73.040;2023-06-10T09:20:23;9.50;99.90
31527;DHT22;18136;42.236;-73.040;2023-06-10T09:22:50;9.50;99.90
31527;DHT22;18136;42.236;-73.040;2023-06-10T09:25:16;9.50;99.90
31527;DHT22;18136;42.236;-73.040;2023-06-10T09:27:49;9.50;99.90
31527;DHT22;18136;42.236;-73.040;2023-06-10T09:30:31;9.60;99.90
31527;DHT22;18136;42.236;-73.040;2023-06-10T09:33:01;9.50;99.90
31527;DHT22;18136;42.236;-73.040;2023-06-10T09:35:30;9.50;99.90
31527;DHT22;18136;42.236;-73.040;2023-06-10T09:37:58;9.50;99.90
31527;DHT22;18136;42.236;-73.040;2023-06-10T09:40:25;9.50;99.90
31527;DHT22;18136;42.236;-73.040;2023-06-10T09:42:58;9.50;99.90
31527;DHT22;18136;42.236;-73.040;2023-06-10T09:45:30;9.50;99.90
31527;DHT22;18136;42.236;-73.040;2023-06-10T09:47:57;9.50;99.90
31527;DHT22;18136;42.236;-73.040;2023-06-10T09:50:23;9.50;99.90
31527;DHT22;18136;42.236;-73.040;2023-06-10T09:52:50;9.50;99.90
31527;DHT22;18136;42.236;-73.040;2023-06-10T09:55:17;9.50;99.90
31527;DHT22;18136;42.236;-73.040;2023-06-10T09:57:48;9.50;99.90
31527;DHT22;18136;42.236;-73.040;2023-06-10T10:00:15;9.50;99.90
31527;DHT22;18136;42.236;-73.040;2023-06-10T10:02:49;9.50;99.90
31527;DHT22;18136;42.236;-73.040;2023-06-10T10:05:17;9.50;99.90
31527;DHT22;18136;42.236;-73.040;2023-06-10T10:07:44;9.50;99.90
31527;DHT22;18136;42.236;-73.040;2023-06-10T10:10:11;9.50;99.90
31527;DHT22;18136;42.236;-73.040;2023-06-10T10:12:39;9.50;99.90
31527;DHT22;18136;42.236;-73.040;2023-06-10T10:15:10;9.50;99.90
31527;DHT22;18136;42.236;-73.040;2023-06-10T10:18:09;9.50;99.90
31527;DHT22;18136;42.236;-73.040;2023-06-10T10:20:39;9.60;99.90
31527;DHT22;18136;42.236;-73.040;2023-06-10T10:23:10;9.50;99.90
31527;DHT22;18136;42.236;-73.040;2023-06-10T10:25:40;9.60;99.90
31527;DHT22;18136;42.236;-73.040;2023-06-10T10:28:15;9.50;99.90
31527;DHT22;18136;42.236;-73.040;2023-06-10T10:30:52;9.60;99.90
31527;DHT22;18136;42.236;-73.040;2023-06-10T10:35:53;9.50;99.90
31527;DHT22;18136;42.236;-73.040;2023-06-10T10:38:21;9.50;99.90
31527;DHT22;18136;42.236;-73.040;2023-06-10T10:40:48;9.50;99.90
31527;DHT22;18136;42.236;-73.040;2023-06-10T10:43:16;9.60;99.90
31527;DHT22;18136;42.236;-73.040;2023-06-10T10:45:42;9.60;99.90
31527;DHT22;18136;42.236;-73.040;2023-06-10T10:48:11;9.70;99.90
31527;DHT22;18136;42.236;-73.040;2023-06-10T10:50:39;9.70;99.90
31527;DHT22;18136;42.236;-73.040;2023-06-10T10:53:06;9.70;99.90
31527;DHT22;18136;42.236;-73.040;2023-06-10T10:55:33;9.70;99.90
31527;DHT22;18136;42.236;-73.040;2023-06-10T10:58:13;9.70;99.90
31527;DHT22;18136;42.236;-73.040;2023-06-10T11:00:44;9.80;99.90
31527;DHT22;18136;42.236;-73.040;2023-06-10T11:03:15;9.80;99.90
31527;DHT22;18136;42.236;-73.040;2023-06-10T11:05:46;9.90;99.90
31527;DHT22;18136;42.236;-73.040;2023-06-10T11:09:01;9.90;99.90
31527;DHT22;18136;42.236;-73.040;2023-06-10T11:11:23;10.00;99.90
31527;DHT22;18136;42.236;-73.040;2023-06-10T11:14:07;10.00;99.90
31527;DHT22;18136;42.236;-73.040;2023-06-10T11:16:41;10.00;99.90
31527;DHT22;18136;42.236;-73.040;2023-06-10T11:19:08;10.00;99.90
31527;DHT22;18136;42.236;-73.040;2023-06-10T11:22:01;10.00;99.90
31527;DHT22;18136;42.236;-73.040;2023-06-10T11:24:29;10.00;99.90
31527;DHT22;18136;42.236;-73.040;2023-06-10T11:27:18;10.10;99.90
31527;DHT22;18136;42.236;-73.040;2023-06-10T11:32:34;10.20;99.90
31527;DHT22;18136;42.236;-73.040;2023-06-10T11:35:03;10.20;99.90
31527;DHT22;18136;42.236;-73.040;2023-06-10T11:37:29;10.30;99.90
31527;DHT22;18136;42.236;-73.040;2023-06-10T11:39:56;10.30;99.90
31527;DHT22;18136;42.236;-73.040;2023-06-10T11:42:22;10.40;99.90
31527;DHT22;18136;42.236;-73.040;2023-06-10T11:44:52;10.50;99.90
31527;DHT22;18136;42.236;-73.040;2023-06-10T11:47:19;10.50;99.90
31527;DHT22;18136;42.236;-73.040;2023-06-10T11:49:55;10.50;99.90
31527;DHT22;18136;42.236;-73.040;2023-06-10T11:52:30;10.60;99.90
31527;DHT22;18136;42.236;-73.040;2023-06-10T11:55:04;10.50;99.90
31527;DHT22;18136;42.236;-73.040;2023-06-10T11:57:34;10.50;99.90
31527;DHT22;18136;42.236;-73.040;2023-06-10T12:00:06;10.50;99.90
31527;DHT22;18136;42.236;-73.040;2023-06-10T12:02:33;10.60;99.90
31527;DHT22;18136;42.236;-73.040;2023-06-10T12:05:11;10.70;99.90
31527;DHT22;18136;42.236;-73.040;2023-06-10T12:07:37;10.70;99.90
31527;DHT22;18136;42.236;-73.040;2023-06-10T12:10:03;10.80;99.90
31527;DHT22;18136;42.236;-73.040;2023-06-10T12:12:29;10.80;99.90
31527;DHT22;18136;42.236;-73.040;2023-06-10T12:14:59;11.00;99.90
31527;DHT22;18136;42.236;-73.040;2023-06-10T12:19:58;11.10;99.90
31527;DHT22;18136;42.236;-73.040;2023-06-10T12:22:24;11.10;99.90
31527;DHT22;18136;42.236;-73.040;2023-06-10T12:25:03;11.10;99.90
31527;DHT22;18136;42.236;-73.040;2023-06-10T12:27:30;11.20;99.90
31527;DHT22;18136;42.236;-73.040;2023-06-10T12:29:58;11.30;99.90
31527;DHT22;18136;42.236;-73.040;2023-06-10T12:32:43;11.30;99.90
31527;DHT22;18136;42.236;-73.040;2023-06-10T12:35:11;11.40;99.90
31527;DHT22;18136;42.236;-73.040;2023-06-10T12:37:39;11.40;99.90
31527;DHT22;18136;42.236;-73.040;2023-06-10T12:40:06;11.50;99.90
31527;DHT22;18136;42.236;-73.040;2023-06-10T12:42:35;11.40;99.90
31527;DHT22;18136;42.236;-73.040;2023-06-10T12:45:03;11.50;99.90
31527;DHT22;18136;42.236;-73.040;2023-06-10T12:47:31;11.40;99.90
31527;DHT22;18136;42.236;-73.040;2023-06-10T12:49:58;11.40;99.90
31527;DHT22;18136;42.236;-73.040;2023-06-10T12:52:25;11.50;99.90
31527;DHT22;18136;42.236;-73.040;2023-06-10T12:54:51;11.60;99.90
31527;DHT22;18136;42.236;-73.040;2023-06-10T12:57:18;11.70;99.90
31527;DHT22;18136;42.236;-73.040;2023-06-10T12:59:44;11.90;99.90
31527;DHT22;18136;42.236;-73.040;2023-06-10T13:02:16;12.10;99.90
31527;DHT22;18136;42.236;-73.040;2023-06-10T13:04:46;12.30;99.90
31527;DHT22;18136;42.236;-73.040;2023-06-10T13:07:12;12.40;99.90
31527;DHT22;18136;42.236;-73.040;2023-06-10T13:09:39;12.50;99.90
31527;DHT22;18136;42.236;-73.040;2023-06-10T13:12:05;12.70;99.90
31527;DHT22;18136;42.236;-73.040;2023-06-10T13:14:32;12.90;99.90
31527;DHT22;18136;42.236;-73.040;2023-06-10T13:16:58;13.20;99.90
31527;DHT22;18136;42.236;-73.040;2023-06-10T13:19:24;13.40;99.90
31527;DHT22;18136;42.236;-73.040;2023-06-10T13:21:51;13.60;99.90
31527;DHT22;18136;42.236;-73.040;2023-06-10T13:24:17;13.60;99.90
31527;DHT22;18136;42.236;-73.040;2023-06-10T13:26:43;13.70;99.90
31527;DHT22;18136;42.236;-73.040;2023-06-10T13:29:09;13.80;99.90
31527;DHT22;18136;42.236;-73.040;2023-06-10T13:31:40;13.90;99.90
31527;DHT22;18136;42.236;-73.040;2023-06-10T13:34:06;14.00;99.90
31527;DHT22;18136;42.236;-73.040;2023-06-10T13:36:32;14.10;99.90
31527;DHT22;18136;42.236;-73.040;2023-06-10T13:38:58;14.20;99.90
31527;DHT22;18136;42.236;-73.040;2023-06-10T13:41:25;14.40;99.90
31527;DHT22;18136;42.236;-73.040;2023-06-10T13:43:54;14.50;99.90
31527;DHT22;18136;42.236;-73.040;2023-06-10T13:46:21;14.60;99.90
31527;DHT22;18136;42.236;-73.040;2023-06-10T13:48:48;14.60;99.90
31527;DHT22;18136;42.236;-73.040;2023-06-10T13:51:14;14.60;99.90
31527;DHT22;18136;42.236;-73.040;2023-06-10T13:53:40;14.70;99.90
31527;DHT22;18136;42.236;-73.040;2023-06-10T13:56:06;14.80;99.90
31527;DHT22;18136;42.236;-73.040;2023-06-10T13:58:32;14.90;99.90
31527;DHT22;18136;42.236;-73.040;2023-06-10T14:01:04;15.10;99.90
31527;DHT22;18136;42.236;-73.040;2023-06-10T14:03:31;15.30;99.90
31527;DHT22;18136;42.236;-73.040;2023-06-10T14:05:57;15.40;99.90
31527;DHT22;18136;42.236;-73.040;2023-06-10T14:08:23;15.50;99.90
31527;DHT22;18136;42.236;-73.040;2023-06-10T14:10:50;15.50;99.90
31527;DHT22;18136;42.236;-73.040;2023-06-10T14:13:19;15.70;99.90
31527;DHT22;18136;42.236;-73.040;2023-06-10T14:15:45;15.80;99.90
31527;DHT22;18136;42.236;-73.040;2023-06-10T14:18:12;15.90;99.90
31527;DHT22;18136;42.236;-73.040;2023-06-10T14:20:38;15.90;99.90
31527;DHT22;18136;42.236;-73.040;2023-06-10T14:23:04;16.00;99.90
31527;DHT22;18136;42.236;-73.040;2023-06-10T14:25:30;15.80;99.90
31527;DHT22;18136;42.236;-73.040;2023-06-10T14:27:56;16.00;99.90
31527;DHT22;18136;42.236;-73.040;2023-06-10T14:30:23;16.10;99.90
31527;DHT22;18136;42.236;-73.040;2023-06-10T14:32:49;16.30;99.90
31527;DHT22;18136;42.236;-73.040;2023-06-10T14:35:16;16.50;99.90
31527;DHT22;18136;42.236;-73.040;2023-06-10T14:37:42;16.70;99.90
31527;DHT22;18136;42.236;-73.040;2023-06-10T14:40:08;16.80;99.90
31527;DHT22;18136;42.236;-73.040;2023-06-10T14:42:35;16.90;99.90
31527;DHT22;18136;42.236;-73.040;2023-06-10T14:45:01;16.60;99.90
31527;DHT22;18136;42.236;-73.040;2023-06-10T14:47:27;16.40;99.90
31527;DHT22;18136;42.236;-73.040;2023-06-10T14:49:53;16.30;99.90
31527;DHT22;18136;42.236;-73.040;2023-06-10T14:52:19;16.50;99.90
31527;DHT22;18136;42.236;-73.040;2023-06-10T14:54:45;16.90;99.90
31527;DHT22;18136;42.236;-73.040;2023-06-10T14:57:11;17.10;99.90
31527;DHT22;18136;42.236;-73.040;2023-06-10T14:59:37;17.30;99.90
31527;DHT22;18136;42.236;-73.040;2023-06-10T15:02:03;17.40;99.90
31527;DHT22;18136;42.236;-73.040;2023-06-10T15:04:29;17.60;99.90
31527;DHT22;18136;42.236;-73.040;2023-06-10T15:06:56;17.80;99.90
31527;DHT22;18136;42.236;-73.040;2023-06-10T15:09:22;17.80;99.90
31527;DHT22;18136;42.236;-73.040;2023-06-10T15:11:48;17.70;99.90
31527;DHT22;18136;42.236;-73.040;2023-06-10T15:14:14;17.40;99.90
31527;DHT22;18136;42.236;-73.040;2023-06-10T15:16:40;17.10;99.90
31527;DHT22;18136;42.236;-73.040;2023-06-10T15:19:06;17.10;99.90
31527;DHT22;18136;42.236;-73.040;2023-06-10T15:21:34;17.20;99.90
31527;DHT22;18136;42.236;-73.040;2023-06-10T15:24:00;17.20;99.90